Time;durP1;ratioP1;P1;durP2;ratioP2;P2;SDS_P1;SDS_P2;PMS_P1;PMS_P2;Temp;Humidity;BMP_temperature;BMP_pressure;BME280_temperature;BME280_humidity;BME280_pressure;Samples;Min_cycle;Max_cycle;Signal;HPM_P1;HPM_P2
2022/04/15 00:01:18;;;;;;;4.45;2.92;;;;;;;-140.72;100.00;52756.13;5014097;28;20029;-68
2022/04/15 00:03:43;;;;;;;6.30;4.88;;;;;;;-140.72;100.00;52752.06;5016897;28;20029;-67
2022/04/15 00:06:10;;;;;;;4.97;3.08;;;;;;;-140.72;100.00;52784.53;5015270;28;20022;-70
2022/04/15 00:08:36;;;;;;;6.88;3.60;;;;;;;-140.72;100.00;52752.06;5016934;28;20071;-68
2022/04/15 00:11:02;;;;;;;6.60;3.53;;;;;;;-140.72;100.00;52772.34;5017325;28;20033;-68
2022/04/15 00:13:29;;;;;;;5.97;3.38;;;;;;;-140.72;100.00;52784.53;5026337;28;20505;-68
2022/04/15 00:16:02;;;;;;;6.10;4.10;;;;;;;-140.72;100.00;52750.03;5026357;28;20448;-67
2022/04/15 00:18:28;;;;;;;5.35;3.15;;;;;;;-140.72;100.00;52758.16;5025551;28;20502;-68
2022/04/15 00:20:53;;;;;;;4.15;3.00;;;;;;;-140.72;100.00;52748.00;5026260;28;20034;-68
2022/04/15 00:23:22;;;;;;;3.15;2.75;;;;;;;-140.72;100.00;52754.09;5025819;28;20403;-68
2022/04/15 00:25:52;;;;;;;5.70;3.92;;;;;;;-140.72;100.00;52743.94;5025410;28;20029;-68
2022/04/15 00:28:17;;;;;;;5.65;3.92;;;;;;;-140.72;100.00;52780.47;5025221;28;20037;-70
2022/04/15 00:30:43;;;;;;;4.55;3.15;;;;;;;-140.72;100.00;52733.78;5026247;28;20033;-70
2022/04/15 00:33:09;;;;;;;5.55;3.58;;;;;;;-140.72;100.00;52758.16;5025167;28;20033;-68
2022/04/15 00:35:34;;;;;;;3.63;2.65;;;;;;;-140.72;100.00;52754.09;5025310;28;20025;-68
2022/04/15 00:37:59;;;;;;;6.05;4.50;;;;;;;-140.72;100.00;52754.09;5024943;28;20503;-68
2022/04/15 00:40:25;;;;;;;5.78;3.47;;;;;;;-140.72;100.00;52772.34;5025002;28;20045;-68
2022/04/15 00:42:51;;;;;;;6.13;3.22;;;;;;;-140.72;100.00;52741.91;5025135;28;20463;-67
2022/04/15 00:45:16;;;;;;;5.03;3.60;;;;;;;-140.72;100.00;52750.03;5024527;28;20025;-67
2022/04/15 00:47:52;;;;;;;5.38;4.68;;;;;;;-140.72;100.00;52739.88;5025535;28;20076;-70
2022/04/15 00:50:20;;;;;;;4.00;2.35;;;;;;;-140.72;100.00;52733.78;5027309;28;20544;-68
2022/04/15 00:52:47;;;;;;;6.00;3.85;;;;;;;-140.72;100.00;52748.00;5033057;28;20042;-67
2022/04/15 00:55:15;;;;;;;6.80;3.45;;;;;;;-140.72;100.00;52778.44;5032404;28;20059;-70
2022/04/15 00:57:42;;;;;;;5.88;4.18;;;;;;;-140.72;100.00;52766.25;5025555;28;20491;-67
2022/04/15 01:00:10;;;;;;;4.90;4.50;;;;;;;-140.72;100.00;52770.31;5095513;28;20114;-67
2022/04/15 01:02:36;;;;;;;4.38;3.60;;;;;;;-140.72;100.00;52748.00;5129478;27;20030;-67
2022/04/15 01:05:04;;;;;;;4.25;3.55;;;;;;;-140.72;100.00;52800.75;5131240;27;20138;-68
2022/04/15 01:07:35;;;;;;;9.35;3.47;;;;;;;-140.72;100.00;52756.13;5129987;27;20027;-69
2022/04/15 01:10:03;;;;;;;6.28;3.60;;;;;;;-140.72;100.00;52707.41;5028983;28;20032;-68
2022/04/15 01:12:33;;;;;;;4.53;3.75;;;;;;;-140.72;100.00;52768.28;5027949;28;20034;-67
2022/04/15 01:15:00;;;;;;;3.85;3.38;;;;;;;-140.72;100.00;52743.94;5028117;28;20367;-68
2022/04/15 01:17:27;;;;;;;5.38;3.58;;;;;;;-140.72;100.00;52752.06;5028997;28;20041;-68
2022/04/15 01:19:56;;;;;;;6.85;4.07;;;;;;;-140.72;100.00;52756.13;5028620;28;20049;-68
2022/04/15 01:22:23;;;;;;;7.93;3.65;;;;;;;-140.72;100.00;52735.81;5027320;28;20053;-68
2022/04/15 01:24:52;;;;;;;6.65;3.40;;;;;;;-140.72;100.00;52768.28;5060820;27;20031;-69
2022/04/15 01:27:32;;;;;;;4.85;3.90;;;;;;;-140.72;100.00;52756.13;5132132;27;20027;-69
2022/04/15 01:29:58;;;;;;;4.05;3.17;;;;;;;-140.72;100.00;52731.75;5133276;27;20406;-69
2022/04/15 01:32:23;;;;;;;6.63;4.13;;;;;;;-140.72;100.00;52735.81;5132756;27;20027;-69
2022/04/15 01:34:48;;;;;;;4.93;3.10;;;;;;;-140.72;100.00;52713.50;5132106;27;20168;-69
2022/04/15 01:37:16;;;;;;;7.70;3.15;;;;;;;-140.72;100.00;52719.59;5132918;27;20019;-69
2022/04/15 01:39:43;;;;;;;9.48;3.50;;;;;;;-140.72;100.00;52711.47;5133036;27;20456;-68
2022/04/15 01:42:15;;;;;;;4.25;3.85;;;;;;;-140.72;100.00;52709.44;5132671;27;20050;-69
2022/04/15 01:44:41;;;;;;;7.00;4.10;;;;;;;-140.72;100.00;52699.31;5132559;27;20051;-69
2022/04/15 01:47:07;;;;;;;6.13;3.80;;;;;;;-140.72;100.00;52687.13;5132740;27;20345;-69
2022/04/15 01:49:33;;;;;;;5.68;4.25;;;;;;;-140.72;100.00;52705.38;5087210;27;20045;-69
2022/04/15 01:51:58;;;;;;;6.97;3.67;;;;;;;-140.72;100.00;52739.88;5073424;27;20431;-68
2022/04/15 01:54:24;;;;;;;6.05;4.05;;;;;;;-140.72;100.00;52691.19;5096432;27;20437;-68
2022/04/15 01:56:49;;;;;;;6.57;4.05;;;;;;;-140.72;100.00;52679.00;5132245;27;20035;-69
2022/04/15 01:59:15;;;;;;;8.68;4.28;;;;;;;-140.72;100.00;52685.09;5057121;27;20121;-68
2022/04/15 02:01:40;;;;;;;5.57;3.53;;;;;;;-140.72;100.00;52707.41;5048543;28;20057;-69
2022/04/15 02:04:05;;;;;;;4.80;3.22;;;;;;;-140.72;100.00;52666.84;5047866;28;20523;-69
2022/04/15 02:06:31;;;;;;;3.72;3.35;;;;;;;-140.72;100.00;52674.94;5048243;28;20029;-69
2022/04/15 02:08:56;;;;;;;4.50;2.90;;;;;;;-140.72;100.00;52715.53;5048219;28;20028;-69
2022/04/15 02:11:21;;;;;;;5.95;3.80;;;;;;;-140.72;100.00;52674.94;5047044;28;20116;-70
2022/04/15 02:13:47;;;;;;;5.72;3.17;;;;;;;-140.72;100.00;52683.06;5048104;28;20052;-68
2022/04/15 02:16:12;;;;;;;2.83;2.20;;;;;;;-140.72;100.00;52685.09;5036241;28;20056;-69
2022/04/15 02:18:38;;;;;;;4.63;3.33;;;;;;;-140.72;100.00;52664.81;5044716;27;20015;-68
2022/04/15 02:21:03;;;;;;;6.13;3.25;;;;;;;-140.72;100.00;52650.59;5051013;27;20057;-69
2022/04/15 02:23:32;;;;;;;4.60;3.63;;;;;;;-140.72;100.00;52662.78;5112729;27;20312;-68
2022/04/15 02:25:57;;;;;;;4.47;2.65;;;;;;;-140.72;100.00;52618.13;5007142;28;20112;-68
2022/04/15 02:28:23;;;;;;;5.45;3.15;;;;;;;-140.72;100.00;52666.84;5016166;28;20108;-69
2022/04/15 02:30:49;;;;;;;5.30;3.75;;;;;;;-140.72;100.00;52656.69;5026469;28;20132;-69
2022/04/15 02:33:15;;;;;;;6.55;4.05;;;;;;;-140.72;100.00;52640.44;5026972;28;20056;-69
2022/04/15 02:35:40;;;;;;;5.70;4.88;;;;;;;-140.72;100.00;52632.34;5027806;28;20455;-69
2022/04/15 02:38:05;;;;;;;4.57;3.33;;;;;;;-140.72;100.00;52666.84;5044858;28;20120;-69
2022/04/15 02:40:31;;;;;;;7.82;5.30;;;;;;;-140.72;100.00;52638.41;5046722;28;20081;-69
2022/04/15 02:42:56;;;;;;;5.28;3.38;;;;;;;-140.72;100.00;52656.69;5046954;28;20028;-68
2022/04/15 02:45:22;;;;;;;1.80;1.35;;;;;;;-140.72;100.00;52601.91;5045616;28;20071;-69
2022/04/15 02:47:48;;;;;;;3.80;3.40;;;;;;;-140.72;100.00;52666.84;5046614;28;20499;-68
2022/04/15 02:50:14;;;;;;;3.97;3.15;;;;;;;-140.72;100.00;52654.66;5046763;28;20036;-69
2022/04/15 02:52:40;;;;;;;3.90;2.55;;;;;;;-140.72;100.00;52654.66;5046638;28;20458;-69
2022/04/15 02:55:06;;;;;;;3.28;2.80;;;;;;;-140.72;100.00;52668.84;5121876;27;20035;-68
2022/04/15 02:57:31;;;;;;;3.65;3.33;;;;;;;-140.72;100.00;52662.78;5131614;27;20034;-68
2022/04/15 02:59:58;;;;;;;5.75;2.63;;;;;;;-140.72;100.00;52666.84;5130639;27;20046;-69
2022/04/15 03:02:24;;;;;;;4.60;3.13;;;;;;;-140.72;100.00;52616.09;5131393;27;20062;-69
2022/04/15 03:04:50;;;;;;;3.92;2.83;;;;;;;-140.72;100.00;52650.59;5131079;27;20487;-69
2022/04/15 03:07:18;;;;;;;5.63;3.20;;;;;;;-140.72;100.00;52614.06;5129871;27;20023;-69
2022/04/15 03:09:43;;;;;;;4.20;2.95;;;;;;;-140.72;100.00;52652.63;5132545;27;20034;-68
2022/04/15 03:12:10;;;;;;;3.13;2.03;;;;;;;-140.72;100.00;52634.38;5130886;27;20027;-69
2022/04/15 03:14:35;;;;;;;4.28;2.13;;;;;;;-140.72;100.00;52654.66;5130711;27;20160;-68
2022/04/15 03:17:01;;;;;;;6.28;4.00;;;;;;;-140.72;100.00;52648.56;5130666;27;20061;-69
2022/04/15 03:19:26;;;;;;;4.30;2.90;;;;;;;-140.72;100.00;52644.50;5131296;27;20030;-69
2022/04/15 03:21:52;;;;;;;5.28;3.45;;;;;;;-140.72;100.00;52640.44;5129621;27;20027;-69
2022/04/15 03:24:17;;;;;;;2.95;2.20;;;;;;;-140.72;100.00;52668.84;5129990;27;20418;-69
2022/04/15 03:26:43;;;;;;;7.68;3.22;;;;;;;-140.72;100.00;52642.47;5130310;27;20520;-69
2022/04/15 03:29:08;;;;;;;3.30;1.88;;;;;;;-140.72;100.00;52603.94;5130101;27;20046;-68
2022/04/15 03:31:33;;;;;;;4.13;2.47;;;;;;;-140.72;100.00;52660.75;5130097;27;20023;-68
2022/04/15 03:33:59;;;;;;;5.03;2.25;;;;;;;-140.72;100.00;52597.84;5129562;27;20114;-69
2022/04/15 03:36:24;;;;;;;3.85;2.67;;;;;;;-140.72;100.00;52652.63;5130103;27;20506;-68
2022/04/15 03:38:50;;;;;;;3.30;2.05;;;;;;;-140.72;100.00;52664.81;5130724;27;20420;-69
2022/04/15 03:41:15;;;;;;;2.97;2.13;;;;;;;-140.72;100.00;52622.19;5130133;27;20054;-68
2022/04/15 03:43:40;;;;;;;3.25;2.60;;;;;;;-140.72;100.00;52658.72;5130132;27;20118;-68
2022/04/15 03:46:06;;;;;;;2.60;1.88;;;;;;;-140.72;100.00;52632.34;5130040;27;20043;-69
2022/04/15 03:48:32;;;;;;;2.08;1.55;;;;;;;-140.72;100.00;52597.84;5129430;27;20031;-69
2022/04/15 03:50:57;;;;;;;2.63;2.08;;;;;;;-140.72;100.00;52607.97;5130405;27;20023;-68
2022/04/15 03:53:22;;;;;;;2.78;1.90;;;;;;;-140.72;100.00;52589.72;5130129;27;20376;-68
2022/04/15 03:55:48;;;;;;;3.42;2.13;;;;;;;-140.72;100.00;52630.31;5129762;27;20068;-69
2022/04/15 03:58:16;;;;;;;2.85;2.08;;;;;;;-140.72;100.00;52638.41;5129957;27;20039;-69
2022/04/15 04:00:41;;;;;;;3.58;2.05;;;;;;;-140.72;100.00;52650.59;5129835;27;20027;-69
2022/04/15 04:03:07;;;;;;;4.63;3.47;;;;;;;-140.72;100.00;52679.00;5129254;27;20169;-68
2022/04/15 04:05:32;;;;;;;3.22;1.73;;;;;;;-140.72;100.00;52638.41;5129272;27;20612;-69
2022/04/15 04:07:58;;;;;;;3.05;2.08;;;;;;;-140.72;100.00;52652.63;5127653;27;20027;-69
2022/04/15 04:10:23;;;;;;;4.07;2.08;;;;;;;-140.72;100.00;52632.34;5013544;28;20029;-69
2022/04/15 04:12:48;;;;;;;1.90;1.60;;;;;;;-140.72;100.00;52650.59;5023953;28;20037;-68
2022/04/15 04:15:14;;;;;;;3.85;1.58;;;;;;;-140.72;100.00;52650.59;5025972;28;20044;-69
2022/04/15 04:17:40;;;;;;;2.00;1.80;;;;;;;-140.72;100.00;52642.47;5025031;28;20052;-68
2022/04/15 04:20:07;;;;;;;2.95;2.05;;;;;;;-140.72;100.00;52607.97;5017762;28;20386;-68
2022/04/15 04:22:35;;;;;;;6.53;1.95;;;;;;;-140.72;100.00;52605.94;5024987;28;20544;-68
2022/04/15 04:25:01;;;;;;;3.25;1.85;;;;;;;-140.72;100.00;52626.25;5024604;28;20041;-68
2022/04/15 04:27:26;;;;;;;4.72;1.65;;;;;;;-140.72;100.00;52630.31;5041468;28;20028;-67
2022/04/15 04:29:52;;;;;;;5.63;2.88;;;;;;;-140.72;100.00;52642.47;5128887;27;20031;-67
2022/04/15 04:32:19;;;;;;;2.75;1.30;;;;;;;-140.72;100.00;52614.06;5128658;27;20026;-67
2022/04/15 04:34:45;;;;;;;4.22;2.30;;;;;;;-140.72;100.00;52612.03;5043903;27;20030;-67
2022/04/15 04:37:11;;;;;;;5.68;3.60;;;;;;;-140.72;100.00;52638.41;5024312;28;20544;-67
2022/04/15 04:39:36;;;;;;;4.78;2.65;;;;;;;-140.72;100.00;52670.88;5025949;28;20116;-68
2022/04/15 04:42:03;;;;;;;4.78;3.28;;;;;;;-140.72;100.00;52674.94;5028620;28;20045;-67
2022/04/15 04:44:29;;;;;;;10.75;3.45;;;;;;;-140.72;100.00;52654.66;5027897;28;20392;-67
2022/04/15 04:46:55;;;;;;;6.63;3.10;;;;;;;-140.72;100.00;52650.59;5029191;28;20030;-68
2022/04/15 04:49:21;;;;;;;4.93;3.38;;;;;;;-140.72;100.00;52654.66;5028833;28;20029;-67
2022/04/15 04:51:47;;;;;;;4.25;2.80;;;;;;;-140.72;100.00;52668.84;5028042;28;20061;-67
2022/04/15 04:54:12;;;;;;;7.72;2.70;;;;;;;-140.72;100.00;52618.13;5028743;28;20040;-67
2022/04/15 04:56:38;;;;;;;3.92;1.73;;;;;;;-140.72;100.00;52634.38;5017210;28;20108;-67
2022/04/15 04:59:03;;;;;;;3.50;1.95;;;;;;;-140.72;100.00;52654.66;5008080;28;20125;-68
2022/04/15 05:01:29;;;;;;;4.72;2.33;;;;;;;-140.72;100.00;52654.66;5008929;28;20214;-67
2022/04/15 05:03:54;;;;;;;7.63;3.13;;;;;;;-140.72;100.00;52654.66;5009968;28;20336;-68
2022/04/15 05:06:19;;;;;;;3.10;1.90;;;;;;;-140.72;100.00;52638.41;5027861;28;20082;-67
2022/04/15 05:08:45;;;;;;;4.05;2.30;;;;;;;-140.72;100.00;52650.59;5028508;28;20025;-67
2022/04/15 05:11:10;;;;;;;4.63;2.33;;;;;;;-140.72;100.00;52650.59;5028593;28;20029;-67
2022/04/15 05:13:35;;;;;;;3.28;2.17;;;;;;;-140.72;100.00;52620.16;5028650;28;20030;-67
2022/04/15 05:16:01;;;;;;;3.90;1.65;;;;;;;-140.72;100.00;52656.69;5028998;28;20459;-67
2022/04/15 05:18:26;;;;;;;2.65;1.77;;;;;;;-140.72;100.00;52664.81;5028498;28;20033;-67
2022/04/15 05:20:52;;;;;;;3.70;2.33;;;;;;;-140.72;100.00;52634.38;5028246;28;20038;-68
2022/04/15 05:23:17;;;;;;;2.70;1.77;;;;;;;-140.72;100.00;52636.38;5027926;28;20056;-68
2022/04/15 05:25:42;;;;;;;8.07;2.22;;;;;;;-140.72;100.00;52695.25;5028548;28;20037;-68
2022/04/15 05:28:08;;;;;;;4.00;2.10;;;;;;;-140.72;100.00;52666.84;5027698;28;20053;-68
2022/04/15 05:30:33;;;;;;;3.47;1.73;;;;;;;-140.72;100.00;52646.53;5028240;28;20034;-68
2022/04/15 05:32:59;;;;;;;3.35;1.90;;;;;;;-140.72;100.00;52597.84;5028531;28;20033;-67
2022/04/15 05:35:24;;;;;;;5.18;1.60;;;;;;;-140.72;100.00;52630.31;5027722;28;20048;-68
2022/04/15 05:37:50;;;;;;;3.55;1.90;;;;;;;-140.72;100.00;52658.72;5028524;28;20367;-67
2022/04/15 05:40:15;;;;;;;3.25;1.88;;;;;;;-140.72;100.00;52648.56;5028441;28;20506;-68
2022/04/15 05:42:41;;;;;;;3.75;1.77;;;;;;;-140.72;100.00;52648.56;5027247;28;20037;-67
2022/04/15 05:45:06;;;;;;;2.38;1.35;;;;;;;-140.72;100.00;52642.47;5028763;28;20034;-68
2022/04/15 05:47:32;;;;;;;8.43;2.15;;;;;;;-140.72;100.00;52630.31;5027112;28;20025;-68
2022/04/15 05:49:57;;;;;;;5.55;2.03;;;;;;;-140.72;100.00;52642.47;5027697;28;20022;-67
2022/04/15 05:52:22;;;;;;;3.83;2.30;;;;;;;-140.72;100.00;52650.59;5011408;28;20030;-68
2022/04/15 05:54:48;;;;;;;3.08;1.85;;;;;;;-140.72;100.00;52644.50;5013258;28;20141;-68
2022/04/15 05:57:13;;;;;;;3.75;2.05;;;;;;;-140.72;100.00;52638.41;5007915;28;20133;-69
2022/04/15 05:59:39;;;;;;;3.75;1.92;;;;;;;-140.72;100.00;52644.50;5008401;28;20034;-69
2022/04/15 06:02:04;;;;;;;11.77;2.60;;;;;;;-140.72;100.00;52662.78;5009872;28;20136;-69
2022/04/15 06:04:30;;;;;;;3.92;2.45;;;;;;;-140.72;100.00;52644.50;5014284;28;20030;-69
2022/04/15 06:06:55;;;;;;;6.35;2.45;;;;;;;-140.72;100.00;52618.13;5009995;28;20025;-68
2022/04/15 06:09:20;;;;;;;9.10;2.45;;;;;;;-140.72;100.00;52601.91;5015825;28;20439;-68
2022/04/15 06:11:46;;;;;;;4.95;3.13;;;;;;;-140.72;100.00;52628.28;5009563;28;20101;-68
2022/04/15 06:14:11;;;;;;;5.57;3.85;;;;;;;-140.72;100.00;52648.56;5011629;28;20045;-68
2022/04/15 06:16:39;;;;;;;3.65;1.98;;;;;;;-140.72;100.00;52670.88;5026476;28;20508;-68
2022/04/15 06:19:05;;;;;;;4.03;2.38;;;;;;;-140.72;100.00;52610.00;5026596;28;20117;-68
2022/04/15 06:21:31;;;;;;;3.55;2.50;;;;;;;-140.72;100.00;52630.31;5025471;28;20443;-69
2022/04/15 06:23:57;;;;;;;4.68;2.85;;;;;;;-140.72;100.00;52622.19;5019689;28;20067;-69
2022/04/15 06:26:22;;;;;;;5.05;2.40;;;;;;;-140.72;100.00;52603.94;5013839;28;20061;-68
2022/04/15 06:28:47;;;;;;;3.67;1.90;;;;;;;-140.72;100.00;52626.25;5015592;28;20459;-68
2022/04/15 06:31:13;;;;;;;3.55;1.17;;;;;;;-140.72;100.00;52622.19;5016621;28;20033;-69
2022/04/15 06:33:38;;;;;;;2.30;1.52;;;;;;;-140.72;100.00;52622.19;5016126;28;20036;-69
2022/04/15 06:36:04;;;;;;;4.70;2.88;;;;;;;-140.72;100.00;52603.94;5019227;28;20073;-69
2022/04/15 06:38:30;;;;;;;5.45;2.90;;;;;;;-140.72;100.00;52634.38;5019544;28;20124;-68
2022/04/15 06:40:55;;;;;;;3.90;2.78;;;;;;;-140.72;100.00;52642.47;5018624;28;20045;-69
2022/04/15 06:43:21;;;;;;;5.50;2.22;;;;;;;-140.72;100.00;52646.53;5021192;28;20049;-69
2022/04/15 06:45:46;;;;;;;3.22;2.05;;;;;;;-140.72;100.00;52626.25;5041792;27;20051;-69
2022/04/15 06:48:11;;;;;;;5.93;2.35;;;;;;;-140.72;100.00;52638.41;5094335;27;20102;-69
2022/04/15 06:50:37;;;;;;;7.15;2.97;;;;;;;-140.72;100.00;52662.78;5031473;28;20500;-67
2022/04/15 06:53:03;;;;;;;4.13;2.20;;;;;;;-140.72;100.00;52634.38;5026757;27;20368;-68
2022/04/15 06:55:31;;;;;;;4.47;2.30;;;;;;;-140.72;100.00;52650.59;5027127;28;20049;-69
2022/04/15 06:57:57;;;;;;;4.95;2.55;;;;;;;-140.72;100.00;52654.66;5026971;28;20032;-68
2022/04/15 07:00:23;;;;;;;3.33;2.58;;;;;;;-140.72;100.00;52634.38;5026951;28;20447;-69
2022/04/15 07:02:49;;;;;;;4.75;2.25;;;;;;;-140.72;100.00;52644.50;5026274;28;20084;-68
2022/04/15 07:05:15;;;;;;;3.53;2.60;;;;;;;-140.72;100.00;52638.41;5016676;27;20041;-68
2022/04/15 07:07:41;;;;;;;3.03;2.00;;;;;;;-140.72;100.00;52624.22;5013500;28;20022;-68
2022/04/15 07:10:08;;;;;;;2.28;1.55;;;;;;;-140.72;100.00;52612.03;5014287;28;20029;-68
2022/04/15 07:12:34;;;;;;;2.65;1.60;;;;;;;-140.72;100.00;52662.78;5016368;28;20039;-68
2022/04/15 07:14:59;;;;;;;3.38;2.28;;;;;;;-140.72;100.00;52620.16;5015470;28;20022;-68
2022/04/15 07:17:28;;;;;;;2.15;1.58;;;;;;;-140.72;100.00;52628.28;5018105;27;20026;-68
2022/04/15 07:19:53;;;;;;;2.90;1.70;;;;;;;-140.72;100.00;52624.22;5017531;28;20048;-68
2022/04/15 07:22:19;;;;;;;2.80;1.75;;;;;;;-140.72;100.00;52622.19;5020300;28;20025;-68
2022/04/15 07:24:48;;;;;;;4.95;1.95;;;;;;;-140.72;100.00;52599.88;5022258;28;20082;-68
2022/04/15 07:27:13;;;;;;;4.38;1.60;;;;;;;-140.72;100.00;52632.34;5008596;28;20162;-69
2022/04/15 07:29:39;;;;;;;2.92;1.50;;;;;;;-140.72;100.00;52630.31;5011223;28;20033;-68
2022/04/15 07:32:05;;;;;;;1.55;1.13;;;;;;;-140.72;100.00;52581.59;5023982;28;20030;-69
2022/04/15 07:34:31;;;;;;;1.90;1.30;;;;;;;-140.72;100.00;52575.50;5024414;27;20041;-67
2022/04/15 07:36:57;;;;;;;2.72;1.13;;;;;;;-140.72;100.00;52585.66;5019584;28;20025;-68
2022/04/15 07:39:24;;;;;;;3.13;1.30;;;;;;;-140.72;100.00;52618.13;5025261;28;20101;-68
2022/04/15 07:41:50;;;;;;;1.77;0.90;;;;;;;-140.72;100.00;52626.25;5041859;28;20048;-68
2022/04/15 07:44:16;;;;;;;1.83;1.00;;;;;;;-140.72;100.00;52630.31;5045429;28;20497;-68
2022/04/15 07:46:43;;;;;;;6.20;1.98;;;;;;;-140.72;100.00;52620.16;5027375;28;20029;-68
2022/04/15 07:49:09;;;;;;;5.28;1.48;;;;;;;-140.72;100.00;52577.53;5024280;28;20029;-68
2022/04/15 07:51:36;;;;;;;6.20;1.27;;;;;;;-140.72;100.00;52638.41;5022018;28;20089;-68
2022/04/15 07:54:02;;;;;;;2.45;0.82;;;;;;;-140.72;100.00;52610.00;5025189;28;20018;-69
2022/04/15 07:56:28;;;;;;;1.75;1.27;;;;;;;-140.72;100.00;52622.19;5024962;28;20413;-67
2022/04/15 07:58:53;;;;;;;5.25;1.25;;;;;;;-140.72;100.00;52618.13;5023371;27;20069;-68
2022/04/15 08:01:20;;;;;;;1.83;1.33;;;;;;;-140.72;100.00;52595.81;5016689;27;20632;-69
2022/04/15 08:03:48;;;;;;;2.55;1.35;;;;;;;-140.72;100.00;52561.31;5032796;28;20057;-68
2022/04/15 08:06:14;;;;;;;1.25;1.00;;;;;;;-140.72;100.00;52589.72;5025467;28;20082;-68
2022/04/15 08:08:40;;;;;;;1.25;0.85;;;;;;;-140.72;100.00;52563.34;5032116;28;20120;-68
2022/04/15 08:11:06;;;;;;;1.38;0.70;;;;;;;-140.72;100.00;52571.47;5033198;28;20070;-69
2022/04/15 08:13:32;;;;;;;1.77;1.00;;;;;;;-140.72;100.00;52601.91;5037875;28;20037;-67
2022/04/15 08:15:57;;;;;;;4.90;1.02;;;;;;;-140.72;100.00;52597.84;5025312;28;20444;-68
2022/04/15 08:18:24;;;;;;;1.92;1.00;;;;;;;-140.72;100.00;52593.78;5025399;28;20113;-68
2022/04/15 08:20:51;;;;;;;3.05;0.77;;;;;;;-140.72;100.00;52591.75;5024032;28;20120;-68
2022/04/15 08:23:18;;;;;;;0.98;0.68;;;;;;;-140.72;100.00;52587.69;5010684;28;20055;-68
2022/04/15 08:25:44;;;;;;;4.88;0.70;;;;;;;-140.72;100.00;52607.97;5025943;28;20029;-68
2022/04/15 08:28:11;;;;;;;1.25;0.75;;;;;;;-140.72;100.00;52597.84;5025229;28;20113;-68
2022/04/15 08:30:37;;;;;;;2.22;1.52;;;;;;;-140.72;100.00;52603.94;5024143;28;20037;-67
2022/04/15 08:33:05;;;;;;;0.60;0.60;;;;;;;-140.72;100.00;52593.78;5024915;28;20064;-67
2022/04/15 08:35:31;;;;;;;1.13;0.60;;;;;;;-140.72;100.00;52593.78;5024436;28;20041;-66
2022/04/15 08:37:59;;;;;;;2.83;0.63;;;;;;;-140.72;100.00;52589.72;5024451;28;20507;-68
2022/04/15 08:40:32;;;;;;;0.60;0.40;;;;;;;-140.72;100.00;52585.66;5025150;28;20055;-68
2022/04/15 08:43:00;;;;;;;1.00;0.60;;;;;;;-140.72;100.00;52536.97;5023963;28;20056;-67
2022/04/15 08:45:27;;;;;;;1.05;0.70;;;;;;;-140.72;100.00;52545.06;5024200;28;20045;-68
2022/04/15 08:47:57;;;;;;;0.70;0.60;;;;;;;-140.72;100.00;52555.22;5025031;28;20041;-68
2022/04/15 08:50:24;;;;;;;2.28;0.90;;;;;;;-140.72;100.00;52563.34;5019800;28;20030;-68
2022/04/15 08:52:52;;;;;;;1.52;0.80;;;;;;;-140.72;100.00;52589.72;5014742;28;20082;-68
2022/04/15 08:55:21;;;;;;;6.63;1.23;;;;;;;-140.72;100.00;52532.91;5012982;28;20120;-68
2022/04/15 08:57:47;;;;;;;1.27;0.75;;;;;;;-140.72;100.00;52528.84;5020212;28;20029;-68
2022/04/15 09:00:13;;;;;;;1.15;0.70;;;;;;;-140.72;100.00;52516.66;5018042;28;20218;-66
2022/04/15 09:02:38;;;;;;;0.63;0.47;;;;;;;-140.72;100.00;52539.00;5024664;28;20026;-68
2022/04/15 09:05:04;;;;;;;1.20;0.80;;;;;;;-140.72;100.00;52524.78;5024301;28;20041;-68
2022/04/15 09:07:32;;;;;;;0.60;0.40;;;;;;;-140.72;100.00;52524.78;5024558;28;20147;-68
2022/04/15 09:10:00;;;;;;;0.68;0.40;;;;;;;-140.72;100.00;52526.81;5024906;28;20410;-68
2022/04/15 09:12:29;;;;;;;0.47;0.40;;;;;;;-140.72;100.00;52526.81;5022232;28;20087;-67
2022/04/15 09:15:06;;;;;;;0.70;0.70;;;;;;;-140.72;100.00;52476.09;5018968;28;20051;-68
2022/04/15 09:17:34;;;;;;;0.90;0.40;;;;;;;-140.72;100.00;52520.72;5012201;28;20030;-67
2022/04/15 09:20:00;;;;;;;0.55;0.40;;;;;;;-140.72;100.00;52492.31;5011096;28;20094;-67
2022/04/15 09:22:26;;;;;;;0.75;0.60;;;;;;;-140.72;100.00;52536.97;5016698;28;20056;-68
2022/04/15 09:24:51;;;;;;;1.48;0.40;;;;;;;-140.72;100.00;52520.72;5017901;28;20475;-68
2022/04/15 09:27:19;;;;;;;0.68;0.43;;;;;;;-140.72;100.00;52518.69;5026725;28;20364;-68
2022/04/15 09:29:46;;;;;;;0.38;0.30;;;;;;;-140.72;100.00;52496.38;5016470;27;20482;-68
2022/04/15 09:32:16;;;;;;;0.55;0.30;;;;;;;-140.72;100.00;52500.44;5016172;28;20025;-68
2022/04/15 09:35:01;;;;;;;0.40;0.30;;;;;;;-140.72;100.00;52467.97;5034898;28;20357;-68
2022/04/15 09:37:31;;;;;;;1.77;0.95;;;;;;;-140.72;100.00;52474.06;5015773;28;20036;-68
2022/04/15 09:40:15;;;;;;;0.50;0.30;;;;;;;-140.72;100.00;52474.06;5027326;28;20026;-67
2022/04/15 09:42:49;;;;;;;0.90;0.82;;;;;;;-140.72;100.00;52435.50;5018798;27;20042;-68
2022/04/15 09:45:16;;;;;;;0.60;0.50;;;;;;;-140.72;100.00;52504.50;5108751;27;20047;-68
2022/04/15 09:47:43;;;;;;;1.23;0.85;;;;;;;-140.72;100.00;52474.06;5047642;28;20043;-67
2022/04/15 09:50:38;;;;;;;0.80;0.50;;;;;;;-140.72;100.00;52480.16;5030131;28;20033;-67
2022/04/15 09:53:14;;;;;;;1.67;0.77;;;;;;;-140.72;100.00;52431.44;5028081;28;20030;-67
2022/04/15 09:55:42;;;;;;;1.25;0.75;;;;;;;-140.72;100.00;52435.50;5027258;28;20440;-69
2022/04/15 09:58:16;;;;;;;2.42;0.98;;;;;;;-140.72;100.00;52467.97;5028090;28;20025;-68
2022/04/15 10:00:45;;;;;;;2.83;0.88;;;;;;;-140.72;100.00;52433.47;5026795;28;20116;-68
2022/04/15 10:03:20;;;;;;;0.57;0.45;;;;;;;-140.72;100.00;52386.81;5027627;28;20038;-67
2022/04/15 10:05:45;;;;;;;3.00;1.13;;;;;;;-140.72;100.00;52429.41;5027716;28;20048;-68
2022/04/15 10:08:15;;;;;;;3.80;0.88;;;;;;;-140.72;100.00;52423.31;5027025;28;20470;-68
2022/04/15 10:10:41;;;;;;;1.30;0.75;;;;;;;-140.72;100.00;52451.72;5027605;28;20037;-68
2022/04/15 10:13:07;;;;;;;1.05;0.40;;;;;;;-140.72;100.00;52423.31;5027889;28;20090;-67
2022/04/15 10:15:33;;;;;;;1.58;0.55;;;;;;;-140.72;100.00;52394.91;5023094;27;20467;-67
2022/04/15 10:18:00;;;;;;;1.35;0.50;;;;;;;-140.72;100.00;52386.81;5027713;28;20030;-67
2022/04/15 10:20:27;;;;;;;3.35;0.50;;;;;;;-140.72;100.00;52378.69;5022592;28;20324;-67
2022/04/15 10:22:53;;;;;;;2.13;1.05;;;;;;;-140.72;100.00;52435.50;5028058;28;20405;-67
2022/04/15 10:25:19;;;;;;;0.65;0.40;;;;;;;-140.72;100.00;52364.47;5027022;28;20034;-68
2022/04/15 10:27:45;;;;;;;0.75;0.30;;;;;;;-140.72;100.00;52334.03;5033041;27;20104;-67
2022/04/15 10:30:20;;;;;;;2.10;0.50;;;;;;;-140.72;100.00;52332.03;5017618;28;20321;-67
2022/04/15 10:32:59;;;;;;;0.77;0.43;;;;;;;-140.72;100.00;52348.25;5010443;28;20034;-67
2022/04/15 10:35:34;;;;;;;0.80;0.40;;;;;;;-140.72;100.00;52358.41;5017629;28;20030;-68
2022/04/15 10:38:02;;;;;;;0.60;0.30;;;;;;;-140.72;100.00;52392.88;5017521;28;20029;-68
2022/04/15 10:40:33;;;;;;;0.80;0.50;;;;;;;-140.72;100.00;52303.59;5027374;28;20060;-68
2022/04/15 10:43:18;;;;;;;0.73;0.30;;;;;;;-140.72;100.00;52236.66;5026349;28;20022;-68
2022/04/15 10:45:44;;;;;;;1.50;0.43;;;;;;;-140.72;100.00;52240.72;5027727;28;20029;-67
2022/04/15 10:48:09;;;;;;;0.75;0.35;;;;;;;-140.72;100.00;52189.97;5027391;28;20040;-68
2022/04/15 10:50:35;;;;;;;1.08;0.20;;;;;;;-140.72;100.00;52173.75;5025998;28;20037;-69
2022/04/15 10:53:26;;;;;;;0.75;0.50;;;;;;;-140.72;100.00;52224.47;5026764;28;20033;-69
2022/04/15 10:55:52;;;;;;;0.77;0.30;;;;;;;-140.72;100.00;52104.75;5026688;28;20052;-66
2022/04/15 10:58:19;;;;;;;0.98;0.40;;;;;;;-140.72;100.00;52118.97;5026148;28;20085;-66
2022/04/15 11:03:31;;;;;;;0.90;0.60;;;;;;;-140.72;100.00;52131.16;5018754;28;20080;-66
2022/04/15 11:06:03;;;;;;;1.00;0.25;;;;;;;-140.72;100.00;52127.09;5026077;28;20086;-66
2022/04/15 11:08:43;;;;;;;0.38;0.20;;;;;;;-140.72;100.00;52062.16;5026632;28;20033;-65
2022/04/15 11:11:08;;;;;;;0.60;0.20;;;;;;;-140.72;100.00;52173.75;5026258;28;20033;-66